Time;durP1;ratioP1;P1;durP2;ratioP2;P2;SDS_P1;SDS_P2;PMS_P1;PMS_P2;Temp;Humidity;BMP_temperature;BMP_pressure;BME280_temperature;BME280_humidity;BME280_pressure;Samples;Min_cycle;Max_cycle;Signal;HPM_P1;HPM_P2
2021/05/19 00:01:42;;;;;;;6.38;2.03;;;11.10;97.00;;;;;;5017508;28;20209;-81
2021/05/19 00:04:08;;;;;;;1.85;1.42;;;11.00;97.20;;;;;;5017624;28;20270;-81
2021/05/19 00:06:35;;;;;;;2.75;1.50;;;11.10;97.50;;;;;;5018748;28;20182;-81
2021/05/19 00:09:02;;;;;;;13.55;2.38;;;11.10;97.40;;;;;;5020298;28;20171;-80
2021/05/19 00:11:27;;;;;;;2.58;1.50;;;11.10;97.50;;;;;;5016609;28;20624;-81
2021/05/19 00:13:53;;;;;;;3.70;2.00;;;11.20;97.60;;;;;;5017399;28;20179;-81
2021/05/19 00:16:19;;;;;;;5.23;1.43;;;11.20;97.60;;;;;;5017901;28;20621;-81
2021/05/19 00:18:45;;;;;;;6.47;2.10;;;11.30;97.50;;;;;;5017958;28;20789;-81
2021/05/19 00:21:11;;;;;;;3.13;1.63;;;11.30;97.60;;;;;;5018401;28;20464;-81
2021/05/19 00:23:37;;;;;;;2.90;1.80;;;11.30;97.30;;;;;;5018906;28;20171;-81
2021/05/19 00:26:04;;;;;;;4.10;1.83;;;11.30;97.70;;;;;;5018269;28;20167;-81
2021/05/19 00:28:31;;;;;;;10.18;1.90;;;11.30;97.90;;;;;;5018831;28;20175;-81
2021/05/19 00:31:00;;;;;;;2.65;1.75;;;11.30;97.80;;;;;;5018012;28;20194;-81
2021/05/19 00:33:26;;;;;;;4.63;1.67;;;11.30;97.40;;;;;;5018884;28;20179;-81
2021/05/19 00:35:52;;;;;;;2.40;1.30;;;11.30;97.00;;;;;;5020256;28;20175;-81
2021/05/19 00:38:18;;;;;;;7.93;1.90;;;11.30;97.00;;;;;;5019785;28;20417;-81
2021/05/19 00:40:44;;;;;;;2.83;1.65;;;11.30;97.40;;;;;;5020108;28;20210;-81
2021/05/19 00:43:10;;;;;;;2.83;1.88;;;11.30;97.80;;;;;;5018884;28;20228;-81
2021/05/19 00:45:36;;;;;;;3.38;1.60;;;11.40;98.20;;;;;;5018275;28;20171;-80
2021/05/19 00:48:03;;;;;;;3.33;2.00;;;11.40;98.20;;;;;;5018510;28;20171;-80
2021/05/19 00:50:30;;;;;;;3.15;1.60;;;11.40;98.30;;;;;;5017916;28;20197;-81
2021/05/19 00:52:57;;;;;;;2.85;2.33;;;11.40;98.50;;;;;;5017109;28;20639;-81
2021/05/19 00:55:24;;;;;;;2.58;1.70;;;11.50;98.20;;;;;;5017118;28;20643;-81
2021/05/19 00:57:52;;;;;;;2.80;1.75;;;11.50;98.20;;;;;;5016943;28;20202;-81
2021/05/19 01:00:20;;;;;;;2.03;1.60;;;11.50;98.40;;;;;;5017421;28;20622;-81
2021/05/19 01:02:46;;;;;;;3.40;2.20;;;11.50;98.30;;;;;;5018373;28;20171;-81
2021/05/19 01:05:31;;;;;;;2.92;1.70;;;11.50;98.20;;;;;;5017649;28;20643;-82
2021/05/19 01:10:41;;;;;;;6.40;2.95;;;11.50;97.60;;;;;;5018576;28;20225;-81
2021/05/19 01:13:07;;;;;;;2.90;1.80;;;11.50;97.90;;;;;;5017718;28;20186;-81
2021/05/19 01:15:34;;;;;;;4.30;1.90;;;11.50;98.30;;;;;;5018121;28;20174;-81
2021/05/19 01:18:02;;;;;;;2.33;1.60;;;11.50;98.10;;;;;;5018229;28;20177;-81
2021/05/19 01:20:27;;;;;;;5.72;2.38;;;11.50;98.00;;;;;;5017525;28;20241;-81
2021/05/19 01:22:53;;;;;;;3.13;1.90;;;11.50;98.10;;;;;;5018914;28;20628;-82
2021/05/19 01:25:19;;;;;;;3.55;1.92;;;11.50;98.10;;;;;;5016397;28;20983;-81
2021/05/19 01:27:55;;;;;;;6.73;1.90;;;11.40;98.30;;;;;;5016267;28;20599;-81
2021/05/19 01:30:22;;;;;;;3.38;1.98;;;11.40;98.50;;;;;;5015754;28;20464;-81
2021/05/19 01:32:48;;;;;;;3.08;2.00;;;11.40;98.60;;;;;;5015626;28;20208;-81
2021/05/19 01:35:14;;;;;;;2.53;1.83;;;11.50;98.60;;;;;;5016054;28;20174;-81
2021/05/19 01:37:42;;;;;;;4.93;2.30;;;11.50;98.70;;;;;;5015937;28;20421;-81
2021/05/19 01:40:10;;;;;;;3.70;1.60;;;11.50;98.70;;;;;;5015443;28;20211;-81
2021/05/19 01:42:35;;;;;;;3.05;1.90;;;11.50;98.60;;;;;;5016073;28;20178;-80
2021/05/19 01:45:01;;;;;;;5.13;1.87;;;11.50;98.50;;;;;;5015646;28;20190;-80
2021/05/19 01:47:48;;;;;;;6.82;1.55;;;11.50;98.70;;;;;;5015642;28;20225;-81
2021/05/19 01:50:22;;;;;;;6.95;1.60;;;11.50;98.60;;;;;;5015892;28;20705;-82
2021/05/19 01:52:53;;;;;;;2.47;1.92;;;11.50;98.50;;;;;;5016254;28;20208;-81
2021/05/19 01:55:19;;;;;;;3.17;1.95;;;11.50;98.50;;;;;;5015837;28;20233;-80
2021/05/19 01:57:47;;;;;;;4.65;1.75;;;11.40;98.50;;;;;;4999624;28;20174;-81
2021/05/19 02:00:14;;;;;;;2.50;2.05;;;11.30;98.80;;;;;;5015397;28;20206;-81
2021/05/19 02:02:41;;;;;;;2.28;2.00;;;11.40;98.70;;;;;;5014927;28;20607;-81
2021/05/19 02:05:14;;;;;;;3.72;2.28;;;11.40;98.90;;;;;;5015351;28;20226;-81
2021/05/19 02:07:40;;;;;;;3.00;1.58;;;11.40;99.00;;;;;;5015305;28;20519;-81
2021/05/19 02:10:08;;;;;;;4.05;1.77;;;11.40;99.00;;;;;;5014699;28;20222;-81
2021/05/19 02:12:34;;;;;;;2.83;2.17;;;11.40;99.00;;;;;;5015011;28;20182;-82
2021/05/19 02:15:00;;;;;;;2.40;2.20;;;11.40;99.10;;;;;;5014769;28;20178;-81
2021/05/19 02:17:28;;;;;;;5.80;2.00;;;11.40;98.70;;;;;;5015831;28;20185;-82
2021/05/19 02:19:55;;;;;;;1.92;1.90;;;11.40;98.60;;;;;;5015625;28;20178;-81
2021/05/19 02:22:22;;;;;;;3.55;1.70;;;11.50;98.60;;;;;;5014960;28;20174;-82
2021/05/19 02:24:47;;;;;;;4.60;2.53;;;11.40;98.60;;;;;;5015483;28;20174;-81
2021/05/19 02:27:14;;;;;;;3.43;2.13;;;11.50;98.60;;;;;;5014419;28;20677;-81
2021/05/19 02:29:40;;;;;;;3.08;1.67;;;11.40;98.60;;;;;;5015045;28;20424;-81
2021/05/19 02:32:07;;;;;;;1.75;1.67;;;11.40;98.60;;;;;;5014871;28;20174;-81
2021/05/19 02:34:33;;;;;;;5.40;2.10;;;11.40;98.20;;;;;;5015723;28;20225;-81
2021/05/19 02:36:58;;;;;;;2.60;2.10;;;11.40;98.20;;;;;;5015634;28;20170;-81
2021/05/19 02:39:24;;;;;;;7.50;1.90;;;11.40;98.20;;;;;;5015271;28;20422;-81
2021/05/19 02:41:50;;;;;;;5.17;2.33;;;11.40;98.20;;;;;;5015125;28;20202;-81
2021/05/19 02:44:16;;;;;;;1.90;1.37;;;11.40;98.30;;;;;;5015197;28;20972;-82
2021/05/19 02:46:42;;;;;;;4.97;2.30;;;11.40;98.50;;;;;;5015968;28;20643;-81
2021/05/19 02:49:07;;;;;;;4.50;2.27;;;11.40;98.80;;;;;;5014441;28;20945;-81
2021/05/19 02:51:37;;;;;;;2.90;1.87;;;11.30;99.00;;;;;;5014254;28;20678;-81
2021/05/19 02:54:05;;;;;;;3.40;2.33;;;11.40;99.00;;;;;;5014359;28;20421;-81
2021/05/19 02:56:32;;;;;;;3.30;2.17;;;11.30;99.00;;;;;;5014642;28;20174;-81
2021/05/19 02:58:57;;;;;;;3.25;2.25;;;11.30;99.00;;;;;;5014701;28;20387;-81
2021/05/19 03:01:23;;;;;;;2.40;2.00;;;11.30;98.90;;;;;;5014749;28;20213;-81
2021/05/19 03:03:49;;;;;;;3.73;2.27;;;11.30;98.90;;;;;;5015007;28;20871;-81
2021/05/19 03:06:15;;;;;;;3.37;2.17;;;11.30;99.00;;;;;;5016238;28;20412;-81
2021/05/19 03:08:41;;;;;;;3.63;1.92;;;11.20;98.90;;;;;;5015202;28;20489;-81
2021/05/19 03:11:08;;;;;;;9.30;2.40;;;11.30;98.80;;;;;;5014328;28;20221;-81
2021/05/19 03:13:34;;;;;;;4.75;2.33;;;11.20;98.70;;;;;;5014700;28;20409;-81
2021/05/19 03:15:59;;;;;;;3.00;1.60;;;11.20;98.50;;;;;;5014854;28;20174;-81
2021/05/19 03:18:25;;;;;;;4.13;2.40;;;11.20;98.50;;;;;;5015315;28;20551;-81
2021/05/19 03:20:52;;;;;;;3.13;1.70;;;11.20;98.40;;;;;;5015280;28;21005;-80
2021/05/19 03:23:18;;;;;;;3.95;2.20;;;11.20;98.70;;;;;;5016118;28;20416;-80
2021/05/19 03:25:44;;;;;;;3.37;2.30;;;11.10;98.70;;;;;;5015861;28;20198;-80
2021/05/19 03:28:10;;;;;;;3.60;2.30;;;11.20;98.70;;;;;;5015881;28;20937;-79
2021/05/19 03:30:36;;;;;;;4.80;2.40;;;11.10;98.70;;;;;;5016112;28;20190;-79
2021/05/19 03:33:03;;;;;;;5.43;2.47;;;11.20;98.70;;;;;;5015781;28;20471;-80
2021/05/19 03:35:29;;;;;;;3.15;1.92;;;11.20;98.50;;;;;;5018953;28;20178;-80
2021/05/19 03:37:55;;;;;;;4.72;2.60;;;11.20;98.40;;;;;;5020062;28;20208;-80
2021/05/19 03:40:22;;;;;;;2.77;1.80;;;11.20;98.20;;;;;;5019436;28;20573;-80
2021/05/19 03:42:48;;;;;;;3.60;2.50;;;11.10;98.40;;;;;;5019568;28;20907;-80
2021/05/19 03:45:16;;;;;;;4.40;2.80;;;11.10;98.40;;;;;;5019797;28;20218;-80
2021/05/19 03:47:44;;;;;;;2.80;2.00;;;11.10;98.40;;;;;;5018938;28;20769;-80
2021/05/19 03:50:11;;;;;;;1.90;1.67;;;11.10;98.60;;;;;;5017802;28;20198;-81
2021/05/19 03:52:37;;;;;;;3.60;2.20;;;11.20;98.70;;;;;;5018592;28;20542;-81
2021/05/19 03:55:05;;;;;;;7.65;2.53;;;11.20;98.40;;;;;;5018185;28;20205;-80
2021/05/19 03:57:31;;;;;;;2.97;2.15;;;11.20;98.50;;;;;;5017862;28;20171;-81
2021/05/19 03:59:56;;;;;;;3.05;2.00;;;11.20;98.50;;;;;;5018127;28;20224;-81
2021/05/19 04:02:22;;;;;;;4.60;2.63;;;11.10;98.40;;;;;;5017762;28;20224;-81
2021/05/19 04:04:48;;;;;;;4.27;2.40;;;11.10;98.40;;;;;;5018540;28;20182;-81
2021/05/19 04:07:15;;;;;;;5.90;2.47;;;11.10;98.30;;;;;;5018542;28;20456;-80
2021/05/19 04:09:40;;;;;;;3.47;2.33;;;11.10;98.20;;;;;;5017966;28;20531;-80
2021/05/19 04:12:07;;;;;;;2.77;2.30;;;11.10;98.20;;;;;;5018617;28;20177;-81
2021/05/19 04:14:33;;;;;;;2.50;1.95;;;11.10;98.40;;;;;;5019514;28;20413;-80
2021/05/19 04:16:58;;;;;;;4.57;2.10;;;11.10;98.50;;;;;;5018941;28;20175;-80
2021/05/19 04:19:24;;;;;;;2.80;2.00;;;11.10;98.30;;;;;;5018327;28;20224;-84
2021/05/19 04:21:50;;;;;;;1.77;1.73;;;11.10;98.40;;;;;;5018524;28;20540;-83
2021/05/19 04:24:16;;;;;;;3.03;1.83;;;11.10;98.40;;;;;;5019153;28;20945;-84
2021/05/19 04:26:41;;;;;;;3.97;2.37;;;11.10;98.40;;;;;;5017826;28;20253;-83
2021/05/19 04:29:07;;;;;;;4.47;2.07;;;11.10;98.40;;;;;;5018403;28;20217;-83
2021/05/19 04:31:33;;;;;;;3.80;2.10;;;11.10;98.50;;;;;;5018641;28;20437;-83
2021/05/19 04:33:59;;;;;;;3.43;2.10;;;11.10;98.50;;;;;;5019218;28;20459;-83
2021/05/19 04:36:25;;;;;;;1.90;1.85;;;11.10;98.60;;;;;;5019391;28;20444;-83
2021/05/19 04:38:51;;;;;;;2.90;1.83;;;11.10;98.80;;;;;;5019779;28;20175;-83
2021/05/19 04:41:17;;;;;;;7.47;2.10;;;11.10;98.70;;;;;;5021282;28;20202;-83
2021/05/19 04:43:43;;;;;;;2.75;1.88;;;11.10;98.70;;;;;;5021124;28;20422;-83
2021/05/19 04:46:09;;;;;;;2.38;1.70;;;11.20;98.50;;;;;;5019961;28;20619;-84
2021/05/19 04:48:35;;;;;;;3.85;2.05;;;11.20;98.50;;;;;;5019551;28;20166;-83
2021/05/19 04:51:01;;;;;;;2.77;2.17;;;11.20;98.70;;;;;;5020030;28;20198;-83
2021/05/19 04:53:26;;;;;;;2.67;1.80;;;11.10;98.40;;;;;;5018380;28;20702;-82
2021/05/19 04:55:53;;;;;;;4.87;3.10;;;11.10;98.30;;;;;;5020686;28;20821;-82
2021/05/19 04:58:19;;;;;;;5.20;2.40;;;11.20;98.70;;;;;;5020365;28;20197;-82
2021/05/19 05:00:45;;;;;;;3.72;2.72;;;11.20;98.70;;;;;;5019228;28;20212;-82
2021/05/19 05:03:13;;;;;;;2.00;1.90;;;11.20;99.00;;;;;;5020071;28;20254;-83
2021/05/19 05:05:38;;;;;;;4.90;2.08;;;11.20;99.00;;;;;;5020194;28;20422;-82
2021/05/19 05:08:04;;;;;;;5.30;2.47;;;11.30;99.10;;;;;;5019952;28;20175;-82
2021/05/19 05:10:30;;;;;;;7.10;2.30;;;11.30;99.10;;;;;;5019609;28;20636;-82
2021/05/19 05:12:56;;;;;;;6.67;2.80;;;11.30;99.10;;;;;;5020718;28;20175;-82
2021/05/19 05:15:22;;;;;;;2.47;2.23;;;11.30;99.10;;;;;;5022688;28;20613;-82
2021/05/19 05:17:48;;;;;;;3.53;2.23;;;11.30;99.10;;;;;;5022365;28;20420;-82
2021/05/19 05:20:14;;;;;;;4.82;2.85;;;11.40;99.10;;;;;;5022848;28;20545;-82
2021/05/19 05:22:40;;;;;;;5.68;3.05;;;11.40;98.90;;;;;;5006979;28;20170;-82
2021/05/19 05:25:07;;;;;;;5.28;2.92;;;11.40;99.10;;;;;;5007182;28;20183;-82
2021/05/19 05:27:33;;;;;;;4.63;2.78;;;11.40;98.80;;;;;;5006988;28;20177;-82
2021/05/19 05:29:59;;;;;;;3.80;2.67;;;11.50;99.10;;;;;;5006888;28;20177;-82
2021/05/19 05:32:25;;;;;;;4.20;3.00;;;11.50;99.00;;;;;;5006545;28;20178;-82
2021/05/19 05:34:51;;;;;;;6.13;3.00;;;11.60;99.00;;;;;;5005793;28;20504;-82
2021/05/19 05:37:18;;;;;;;8.10;3.05;;;11.70;98.80;;;;;;5006539;28;20174;-82
2021/05/19 05:39:44;;;;;;;4.47;2.45;;;11.70;97.60;;;;;;5006203;28;20639;-82
2021/05/19 05:42:10;;;;;;;7.03;3.10;;;11.70;98.10;;;;;;5006288;28;20175;-82
2021/05/19 05:44:35;;;;;;;6.37;2.87;;;11.80;98.30;;;;;;5008566;28;20434;-82
2021/05/19 05:47:01;;;;;;;5.33;2.80;;;11.90;98.80;;;;;;5006314;28;20414;-82
2021/05/19 05:49:27;;;;;;;3.43;2.53;;;12.00;98.70;;;;;;5005904;28;20409;-83
2021/05/19 05:51:53;;;;;;;5.75;2.75;;;12.00;98.50;;;;;;5005299;28;20776;-82
2021/05/19 05:54:19;;;;;;;5.40;3.00;;;12.10;96.90;;;;;;5006292;28;20232;-83
2021/05/19 05:56:45;;;;;;;4.03;2.93;;;12.10;96.60;;;;;;5005161;28;20512;-82
2021/05/19 05:59:11;;;;;;;4.97;3.10;;;12.20;96.80;;;;;;5005321;28;20182;-82
2021/05/19 06:01:37;;;;;;;4.85;2.88;;;12.20;95.00;;;;;;5004088;28;20198;-83
2021/05/19 06:04:03;;;;;;;4.97;2.80;;;12.20;95.00;;;;;;5002549;28;20174;-83
2021/05/19 06:06:29;;;;;;;5.65;3.03;;;12.30;95.90;;;;;;5002692;28;20185;-82
2021/05/19 06:08:55;;;;;;;9.07;3.08;;;12.40;96.80;;;;;;5003034;28;20241;-82
2021/05/19 06:11:21;;;;;;;5.28;3.22;;;12.40;95.30;;;;;;5002858;28;20201;-82
2021/05/19 06:13:47;;;;;;;8.10;2.80;;;12.50;94.10;;;;;;5002604;28;20178;-82
2021/05/19 06:16:13;;;;;;;4.17;3.13;;;12.50;94.40;;;;;;5001749;28;20432;-82
2021/05/19 06:18:39;;;;;;;8.07;3.83;;;12.50;94.60;;;;;;5003157;28;20424;-83
2021/05/19 06:21:05;;;;;;;5.33;3.33;;;12.50;94.90;;;;;;5002456;28;20461;-82
2021/05/19 06:23:31;;;;;;;4.60;3.22;;;12.50;94.80;;;;;;5002271;28;20167;-82
2021/05/19 06:25:56;;;;;;;4.37;3.00;;;12.40;94.40;;;;;;5020605;28;20173;-82
2021/05/19 06:28:22;;;;;;;5.40;3.17;;;12.40;94.90;;;;;;5003168;28;20889;-82
2021/05/19 06:30:48;;;;;;;5.40;3.03;;;12.40;94.50;;;;;;5003505;28;20229;-82
2021/05/19 06:33:14;;;;;;;3.50;2.50;;;12.40;93.90;;;;;;5005041;28;20452;-83
2021/05/19 06:35:40;;;;;;;3.73;2.83;;;12.50;93.00;;;;;;5004702;28;20929;-83
2021/05/19 06:38:05;;;;;;;8.23;3.20;;;12.60;92.50;;;;;;5005434;28;20426;-82
2021/05/19 06:40:33;;;;;;;4.97;3.37;;;12.70;93.10;;;;;;5006679;28;20465;-82
2021/05/19 06:42:59;;;;;;;8.10;3.40;;;12.70;92.90;;;;;;5006781;28;20460;-82
2021/05/19 06:45:25;;;;;;;3.35;2.85;;;12.70;92.30;;;;;;5105075;23;20221;-79
2021/05/19 06:47:54;;;;;;;6.15;3.47;;;12.80;91.30;;;;;;5060435;28;20173;-79
2021/05/19 06:50:20;;;;;;;3.90;3.25;;;12.90;92.60;;;;;;5058540;28;20204;-81
2021/05/19 06:52:48;;;;;;;7.75;3.65;;;13.00;91.10;;;;;;5059548;28;20204;-79
2021/05/19 06:55:15;;;;;;;4.78;3.45;;;13.20;90.30;;;;;;5059839;28;20177;-79
2021/05/19 06:57:41;;;;;;;4.50;2.75;;;13.30;89.40;;;;;;5059286;28;20219;-81
2021/05/19 07:00:09;;;;;;;3.30;2.65;;;13.30;87.30;;;;;;5057666;28;20224;-82
2021/05/19 07:02:37;;;;;;;7.75;3.70;;;13.30;88.80;;;;;;5058054;28;20226;-81
2021/05/19 07:05:07;;;;;;;10.48;4.05;;;13.50;87.30;;;;;;5058839;28;20694;-79
2021/05/19 07:07:33;;;;;;;5.78;3.90;;;13.70;87.30;;;;;;5057593;28;20173;-79
2021/05/19 07:09:59;;;;;;;4.80;2.70;;;13.80;86.90;;;;;;5060073;28;20176;-78
2021/05/19 07:12:25;;;;;;;7.93;3.60;;;14.00;87.40;;;;;;5062689;28;20426;-79
2021/05/19 07:14:58;;;;;;;5.30;3.10;;;14.00;84.60;;;;;;5063228;28;20422;-80
2021/05/19 07:17:23;;;;;;;9.77;3.75;;;14.30;87.00;;;;;;5064066;28;20396;-79
2021/05/19 07:19:49;;;;;;;4.80;3.03;;;14.60;85.60;;;;;;5061386;28;20208;-80
2021/05/19 07:22:15;;;;;;;5.27;2.73;;;14.80;84.90;;;;;;5062292;28;20173;-79
2021/05/19 07:24:41;;;;;;;8.80;2.80;;;14.80;83.40;;;;;;5063617;28;20170;-79
2021/05/19 07:27:07;;;;;;;4.80;2.70;;;14.60;81.40;;;;;;5060462;28;20207;-79
2021/05/19 07:29:33;;;;;;;4.67;3.37;;;14.60;83.30;;;;;;5059794;28;20533;-80
2021/05/19 07:31:59;;;;;;;5.33;3.67;;;14.50;83.90;;;;;;5061622;28;20443;-80
2021/05/19 07:34:25;;;;;;;5.45;3.05;;;14.30;82.30;;;;;;5061266;28;20411;-79
2021/05/19 07:36:51;;;;;;;6.25;4.13;;;14.30;85.20;;;;;;5059096;28;20176;-78
2021/05/19 07:39:18;;;;;;;5.00;3.30;;;14.50;85.10;;;;;;5060508;28;20173;-79
2021/05/19 07:41:44;;;;;;;5.80;3.17;;;14.60;80.80;;;;;;5061482;28;20505;-79
2021/05/19 07:44:10;;;;;;;6.57;3.08;;;14.50;81.70;;;;;;5062423;28;20173;-79
2021/05/19 07:46:38;;;;;;;5.43;3.65;;;14.50;82.80;;;;;;5062566;28;20231;-79
2021/05/19 07:49:07;;;;;;;6.45;3.15;;;14.40;85.10;;;;;;5061470;28;20169;-79
2021/05/19 07:51:35;;;;;;;8.18;4.03;;;14.20;86.70;;;;;;5063910;28;20202;-79
2021/05/19 07:54:03;;;;;;;5.55;3.95;;;14.10;89.40;;;;;;5061686;28;20173;-78
2021/05/19 07:56:38;;;;;;;4.90;3.20;;;13.80;90.10;;;;;;5057273;28;20542;-77
2021/05/19 07:59:10;;;;;;;5.75;3.30;;;13.60;90.10;;;;;;5058138;28;20176;-78
2021/05/19 08:04:09;;;;;;;4.32;2.95;;;13.40;91.00;;;;;;5058527;28;20724;-78
2021/05/19 08:06:36;;;;;;;9.38;3.80;;;13.40;92.60;;;;;;5058180;28;20201;-78
2021/05/19 08:09:04;;;;;;;5.40;2.95;;;13.40;94.00;;;;;;5057745;28;20683;-78
2021/05/19 08:11:30;;;;;;;11.52;3.47;;;13.60;93.80;;;;;;5057221;28;20193;-79
2021/05/19 08:13:57;;;;;;;6.85;2.60;;;13.50;93.10;;;;;;5057359;28;20177;-78
2021/05/19 08:16:23;;;;;;;10.85;2.75;;;13.60;92.90;;;;;;5058714;28;20169;-78
2021/05/19 08:18:49;;;;;;;8.40;2.70;;;13.70;91.00;;;;;;5057616;28;20170;-78
2021/05/19 08:21:15;;;;;;;8.77;3.00;;;13.70;89.40;;;;;;5057302;28;20208;-78
2021/05/19 08:23:41;;;;;;;4.90;3.70;;;13.80;90.10;;;;;;5058932;28;20412;-79
2021/05/19 08:26:06;;;;;;;4.03;2.60;;;13.90;91.10;;;;;;5058810;28;20235;-79
2021/05/19 08:28:33;;;;;;;4.83;3.13;;;14.10;89.10;;;;;;5058239;28;20614;-78
2021/05/19 08:31:00;;;;;;;7.97;3.10;;;14.20;87.60;;;;;;5059277;28;20432;-78
2021/05/19 08:33:25;;;;;;;4.95;2.50;;;14.40;89.20;;;;;;5059109;28;20207;-79
2021/05/19 08:35:51;;;;;;;9.00;2.60;;;14.60;89.60;;;;;;5058617;28;20177;-78
2021/05/19 08:38:17;;;;;;;13.50;3.33;;;14.70;87.70;;;;;;5058504;28;20414;-79
2021/05/19 08:40:43;;;;;;;5.70;2.90;;;14.70;83.70;;;;;;5058524;28;20197;-79
2021/05/19 08:43:13;;;;;;;3.30;2.20;;;14.60;83.40;;;;;;5058153;28;20681;-78
2021/05/19 08:45:39;;;;;;;7.85;2.70;;;14.60;86.60;;;;;;5058796;28;20443;-78
2021/05/19 08:48:07;;;;;;;4.05;2.00;;;14.60;85.50;;;;;;5057827;28;20640;-79
2021/05/19 08:50:36;;;;;;;6.50;3.45;;;14.60;85.60;;;;;;5057831;28;20705;-78
2021/05/19 08:53:05;;;;;;;5.30;3.10;;;14.60;84.80;;;;;;5057764;28;20169;-78
2021/05/19 08:55:31;;;;;;;3.20;2.22;;;14.50;83.70;;;;;;5057435;28;20173;-78
2021/05/19 08:57:57;;;;;;;7.27;2.80;;;14.40;82.80;;;;;;5059002;28;20208;-79
2021/05/19 09:00:23;;;;;;;8.67;3.73;;;14.40;85.80;;;;;;5060751;28;20478;-81
2021/05/19 09:03:13;;;;;;;7.10;3.20;;;14.40;83.80;;;;;;5059915;28;20168;-81
2021/05/19 09:05:41;;;;;;;3.42;2.63;;;14.40;83.40;;;;;;5059157;28;20164;-82
2021/05/19 09:08:18;;;;;;;7.35;2.40;;;14.20;79.10;;;;;;5059183;28;20661;-80
2021/05/19 09:10:59;;;;;;;3.50;2.53;;;14.10;81.90;;;;;;5058413;28;20196;-80
2021/05/19 09:13:30;;;;;;;6.18;3.10;;;14.10;82.80;;;;;;5058133;28;20197;-79
2021/05/19 09:15:57;;;;;;;6.47;3.15;;;14.20;84.40;;;;;;5057859;28;20718;-78
2021/05/19 09:18:23;;;;;;;4.00;2.70;;;14.50;83.80;;;;;;5057087;28;20181;-79
2021/05/19 09:20:51;;;;;;;7.53;2.85;;;14.90;78.50;;;;;;5057518;28;20224;-79
2021/05/19 09:23:20;;;;;;;3.22;2.55;;;15.20;75.60;;;;;;5057848;28;20169;-79
2021/05/19 09:26:03;;;;;;;8.52;2.45;;;15.30;76.30;;;;;;5058982;28;20227;-80
2021/05/19 09:28:29;;;;;;;4.15;2.20;;;15.30;75.50;;;;;;5056642;28;20157;-78
2021/05/19 09:30:55;;;;;;;4.10;2.50;;;15.20;75.90;;;;;;5055025;28;20205;-79
2021/05/19 09:33:24;;;;;;;9.23;1.63;;;15.40;73.10;;;;;;5055908;28;20408;-80
2021/05/19 09:36:10;;;;;;;2.50;1.80;;;15.50;72.30;;;;;;5057776;28;20430;-79
2021/05/19 09:38:36;;;;;;;2.13;1.50;;;15.60;69.90;;;;;;5058536;28;20188;-80
2021/05/19 09:41:36;;;;;;;5.75;1.48;;;15.80;68.50;;;;;;5057556;28;20200;-80
2021/05/19 09:44:04;;;;;;;1.92;1.30;;;16.10;67.70;;;;;;5057919;28;20180;-80
2021/05/19 09:49:16;;;;;;;7.40;1.70;;;16.50;63.70;;;;;;5059979;28;20185;-82
2021/05/19 09:51:52;;;;;;;7.13;1.60;;;16.60;63.30;;;;;;5057674;28;20451;-80
2021/05/19 09:54:32;;;;;;;1.70;1.13;;;16.70;62.00;;;;;;5057612;28;20179;-80
2021/05/19 09:57:04;;;;;;;5.28;2.17;;;16.80;60.80;;;;;;5056910;28;20181;-80
2021/05/19 09:59:30;;;;;;;5.28;2.53;;;16.60;61.90;;;;;;5057424;28;20173;-80
2021/05/19 10:01:57;;;;;;;3.28;1.85;;;16.60;62.70;;;;;;5059160;28;20209;-79
2021/05/19 10:04:33;;;;;;;3.00;1.58;;;16.90;61.70;;;;;;5058558;28;20665;-78
2021/05/19 10:06:59;;;;;;;2.55;1.30;;;17.20;61.40;;;;;;5057970;28;20197;-80
2021/05/19 10:09:28;;;;;;;2.08;1.45;;;17.30;60.80;;;;;;5057203;28;20177;-81
2021/05/19 10:11:56;;;;;;;5.78;1.30;;;17.30;58.30;;;;;;5056231;28;20560;-78
2021/05/19 10:14:23;;;;;;;9.07;1.55;;;17.10;58.70;;;;;;5057414;28;20208;-80
2021/05/19 10:16:58;;;;;;;2.50;1.10;;;17.20;59.20;;;;;;5058051;28;20199;-80
2021/05/19 10:19:31;;;;;;;3.50;1.30;;;17.50;58.40;;;;;;5057058;28;20172;-79
2021/05/19 10:21:58;;;;;;;1.55;1.15;;;17.60;56.40;;;;;;5056440;28;20240;-80
2021/05/19 10:24:54;;;;;;;5.30;1.00;;;17.70;54.70;;;;;;5057475;28;20173;-80
2021/05/19 10:27:21;;;;;;;5.05;1.40;;;17.70;55.70;;;;;;5058098;28;20171;-79
2021/05/19 10:29:47;;;;;;;2.22;1.30;;;17.60;55.90;;;;;;5057412;28;20199;-79
2021/05/19 10:32:36;;;;;;;4.22;1.40;;;17.30;55.50;;;;;;5054454;28;20584;-79
2021/05/19 10:35:06;;;;;;;3.08;0.82;;;17.50;53.60;;;;;;5056965;28;20165;-79
2021/05/19 10:37:32;;;;;;;0.90;0.80;;;17.80;56.00;;;;;;5056836;28;20161;-81
2021/05/19 10:40:27;;;;;;;1.17;0.90;;;18.00;50.40;;;;;;5057887;28;20187;-81
2021/05/19 10:42:58;;;;;;;1.73;1.10;;;18.00;49.40;;;;;;5053728;28;20949;-78
2021/05/19 10:45:24;;;;;;;1.13;0.77;;;18.10;49.80;;;;;;5056630;28;20294;-79
2021/05/19 10:47:50;;;;;;;0.80;0.70;;;17.80;49.00;;;;;;5056190;28;20170;-79
2021/05/19 10:50:25;;;;;;;2.65;1.05;;;17.90;50.30;;;;;;5056877;28;20199;-79
2021/05/19 10:58:51;;;;;;;2.78;1.35;;;18.60;49.10;;;;;;5058185;28;20554;-80
2021/05/19 11:01:38;;;;;;;4.60;1.10;;;18.80;47.90;;;;;;5056606;28;20192;-80
2021/05/19 11:04:18;;;;;;;3.63;1.30;;;18.80;49.10;;;;;;5055017;28;20184;-81
2021/05/19 11:06:56;;;;;;;2.50;0.95;;;18.60;48.80;;;;;;5057309;28;20169;-78
2021/05/19 11:09:23;;;;;;;3.25;1.20;;;18.30;49.00;;;;;;5055833;28;20240;-80
2021/05/19 11:11:49;;;;;;;1.20;1.10;;;18.20;48.40;;;;;;5055493;28;20189;-80
2021/05/19 11:14:43;;;;;;;5.43;1.10;;;18.30;47.30;;;;;;5054852;28;20177;-80
2021/05/19 11:17:19;;;;;;;12.02;1.23;;;18.60;48.80;;;;;;5055839;28;20419;-80
2021/05/19 11:19:45;;;;;;;2.85;1.63;;;18.70;48.20;;;;;;5053453;28;20184;-79
2021/05/19 11:22:14;;;;;;;3.67;1.50;;;18.70;49.00;;;;;;5054962;28;20659;-79
2021/05/19 11:24:48;;;;;;;3.15;1.20;;;18.90;50.00;;;;;;5054990;28;20404;-79
2021/05/19 11:27:16;;;;;;;4.63;1.50;;;19.00;49.20;;;;;;5053867;28;20248;-79
2021/05/19 11:29:44;;;;;;;2.58;1.27;;;19.10;48.10;;;;;;5053898;28;20173;-79
2021/05/19 11:32:15;;;;;;;2.33;1.30;;;19.10;49.20;;;;;;5053648;28;20173;-78
2021/05/19 11:34:41;;;;;;;2.78;1.33;;;19.20;49.00;;;;;;5052910;28;20171;-78
2021/05/19 11:37:07;;;;;;;3.00;1.73;;;19.20;48.30;;;;;;5053971;28;20826;-78
2021/05/19 11:39:45;;;;;;;2.17;1.60;;;18.80;50.40;;;;;;5053245;28;20487;-78
2021/05/19 11:42:21;;;;;;;2.22;1.33;;;18.60;51.20;;;;;;5054397;28;20189;-80
2021/05/19 11:44:57;;;;;;;4.03;1.65;;;18.40;50.00;;;;;;5053887;28;20192;-79
2021/05/19 11:47:28;;;;;;;8.48;1.10;;;18.50;50.50;;;;;;5054050;28;20169;-79
2021/05/19 11:50:07;;;;;;;4.72;1.85;;;;;;;;;;5055562;28;20618;-81
2021/05/19 11:53:00;;;;;;;1.60;1.10;;;18.70;49.50;;;;;;5055492;28;20579;-81
2021/05/19 11:55:31;;;;;;;8.52;1.95;;;18.60;49.20;;;;;;5055505;28;20153;-79
2021/05/19 11:58:24;;;;;;;3.85;1.58;;;18.50;50.10;;;;;;5058633;28;20158;-81
2021/05/19 12:00:58;;;;;;;2.35;1.20;;;18.40;46.90;;;;;;5056021;28;20209;-81
2021/05/19 12:03:26;;;;;;;1.67;1.35;;;18.50;47.50;;;;;;5058384;28;20169;-81
2021/05/19 12:05:52;;;;;;;3.88;1.65;;;18.70;49.40;;;;;;5058140;28;20193;-79
2021/05/19 12:08:35;;;;;;;6.47;1.30;;;19.00;48.80;;;;;;5059006;28;20673;-78
2021/05/19 12:11:05;;;;;;;3.15;1.13;;;19.50;46.50;;;;;;5058304;28;20466;-81
2021/05/19 12:13:36;;;;;;;4.97;1.38;;;19.50;45.40;;;;;;5057815;28;20200;-80
2021/05/19 12:16:06;;;;;;;1.73;0.93;;;19.50;42.80;;;;;;5059144;28;20672;-80
2021/05/19 12:18:32;;;;;;;4.43;2.65;;;19.70;41.50;;;;;;5058882;28;20200;-80
2021/05/19 12:20:58;;;;;;;2.55;1.13;;;20.00;42.00;;;;;;5058410;28;20725;-80
2021/05/19 12:23:24;;;;;;;2.50;1.10;;;20.20;40.70;;;;;;5058596;28;20215;-79
2021/05/19 12:25:56;;;;;;;3.83;1.30;;;20.30;42.00;;;;;;5059448;28;20497;-82
2021/05/19 12:28:24;;;;;;;1.48;1.20;;;20.40;42.80;;;;;;5059152;28;20173;-83
2021/05/19 12:30:58;;;;;;;5.65;1.33;;;20.80;43.90;;;;;;5058848;28;20189;-79
2021/05/19 12:33:26;;;;;;;1.85;1.08;;;20.90;40.30;;;;;;5058549;28;20161;-83
2021/05/19 12:35:53;;;;;;;4.25;1.00;;;21.10;40.10;;;;;;5058759;28;20264;-82
2021/05/19 12:38:24;;;;;;;3.20;1.17;;;21.40;40.20;;;;;;5058750;28;20185;-82
2021/05/19 12:40:51;;;;;;;2.00;1.10;;;21.40;39.80;;;;;;5057580;28;20211;-81
2021/05/19 12:43:29;;;;;;;3.78;1.70;;;21.40;40.10;;;;;;5058948;28;20172;-82
2021/05/19 12:46:09;;;;;;;1.92;1.05;;;21.40;41.40;;;;;;5114931;22;20184;-82
2021/05/19 12:48:42;;;;;;;1.85;1.13;;;21.50;38.60;;;;;;4958747;28;20640;-83
2021/05/19 12:51:08;;;;;;;8.63;1.08;;;21.50;38.50;;;;;;4947145;28;20220;-82
2021/05/19 12:56:33;;;;;;;2.15;1.00;;;21.50;41.00;;;;;;4944133;28;20672;-83
2021/05/19 12:59:09;;;;;;;1.35;0.98;;;21.60;41.20;;;;;;4939077;29;20251;-82
2021/05/19 13:01:43;;;;;;;6.43;1.30;;;21.60;41.60;;;;;;4938656;29;20208;-82
2021/05/19 13:04:10;;;;;;;4.32;1.27;;;21.70;39.80;;;;;;4939824;29;20169;-82
2021/05/19 13:06:36;;;;;;;1.48;0.80;;;21.50;36.90;;;;;;4938566;29;20170;-81
2021/05/19 13:09:06;;;;;;;1.95;1.20;;;21.20;38.90;;;;;;4939813;29;20264;-83
2021/05/19 13:11:34;;;;;;;6.47;1.30;;;21.20;38.40;;;;;;4938892;29;20193;-81